San Luis Valley Regional Bergman Field
KALS : rendu visible

Aérodrome :











RETROUVEZ-NOUS SUR...

 
LOGIN :

S'inscrire | Disclaimer

   EN    FR    IT 

 









Légende :    VFR   VFR Marginal   IFR   IFR Intensif   IFR Très Intensif
Visi : 
Plafond : 
>= 8 km
>= 3000ft
5 à 8 km
1000 à 3000 ft
1500m à 5 km
500 à 1000 ft
800 à 1500m
200 à 500 ft
< 800m
< 200 ft
Symboles :   Orages  Brouillard  Fortes neiges  Fortes précipitations  Vent > 20 kt






- Altitude de l'aérodrome : 7539 ft


KALS - San Luis Valley Regional Bergman Field

DERNIER METAR :
  • 260852Z AUTO 13003KT 10SM CLR M14/M16 A3018 RMK AO2 SLP249 I1000 I3000 T11391161 53001

METARs EXPIRÉS :
  • 260752Z AUTO 25003KT 10SM CLR M11/M13 A3016 RMK AO2 SLP237 I1000 T11111133
  • 260652Z AUTO 13004KT 10SM CLR M12/M14 A3017 RMK AO2 SLP246 I1000 T11171139 400611156

TAF KALS
Valide du 26 à 06h jusqu'au 27 à 06h UTC


260530Z 2606/2706 VRB05KT P6SM SCT250



MET'MAP, la Météo Aéronautique d'un coup d'oeil ! - Copyright ORBIFLY Décembre 2007 - Disclaimer

ORBIFLY MET'MAP TEAM :

Programmation & Développement : Alexandra Zaïnal
Sur une idée originale de : Baudouin d'Aumeries
Assistance à la programmation : Marc-Olivier Méhu
Soutien technique & logistique : Manuel Goepfert

Contact : metmap@orbifly.com




SOURCES & CREDITS :

   NOAA       Earth
Advisory